sensor_id;sensor_type;location;lat;lon;timestamp;pressure;altitude;pressure_sealevel;temperature;humidity
10474;BME280;5284;50.446;7.904;2023-04-29T00:00:56;98098.72;;;12.24;100.00
10474;BME280;5284;50.446;7.904;2023-04-29T00:05:59;98098.28;;;12.28;100.00
10474;BME280;5284;50.446;7.904;2023-04-29T00:11:05;98096.16;;;12.32;100.00
10474;BME280;5284;50.446;7.904;2023-04-29T00:16:08;98108.53;;;12.33;100.00
10474;BME280;5284;50.446;7.904;2023-04-29T00:21:11;98112.41;;;12.21;100.00
10474;BME280;5284;50.446;7.904;2023-04-29T00:26:15;98101.94;;;12.10;100.00
10474;BME280;5284;50.446;7.904;2023-04-29T00:31:20;98107.72;;;12.06;100.00
10474;BME280;5284;50.446;7.904;2023-04-29T00:36:24;98109.47;;;11.97;100.00
10474;BME280;5284;50.446;7.904;2023-04-29T00:41:29;98115.13;;;11.94;100.00
10474;BME280;5284;50.446;7.904;2023-04-29T00:46:32;98120.47;;;11.94;100.00
10474;BME280;5284;50.446;7.904;2023-04-29T00:51:35;98120.59;;;11.93;100.00
10474;BME280;5284;50.446;7.904;2023-04-29T00:56:41;98117.78;;;11.94;100.00
10474;BME280;5284;50.446;7.904;2023-04-29T01:01:46;98118.78;;;11.93;100.00
10474;BME280;5284;50.446;7.904;2023-04-29T01:07:01;98129.59;;;11.92;100.00
10474;BME280;5284;50.446;7.904;2023-04-29T01:12:14;98126.81;;;11.93;100.00
10474;BME280;5284;50.446;7.904;2023-04-29T01:17:20;98127.94;;;11.91;100.00
10474;BME280;5284;50.446;7.904;2023-04-29T01:22:27;98136.81;;;11.91;100.00
10474;BME280;5284;50.446;7.904;2023-04-29T01:27:33;98130.72;;;11.89;100.00
10474;BME280;5284;50.446;7.904;2023-04-29T01:32:52;98143.41;;;11.87;100.00
10474;BME280;5284;50.446;7.904;2023-04-29T01:38:09;98139.50;;;11.82;100.00
10474;BME280;5284;50.446;7.904;2023-04-29T01:43:15;98134.47;;;11.79;100.00
10474;BME280;5284;50.446;7.904;2023-04-29T01:48:22;98137.56;;;11.74;100.00
10474;BME280;5284;50.446;7.904;2023-04-29T01:53:26;98137.69;;;11.73;100.00
10474;BME280;5284;50.446;7.904;2023-04-29T01:58:30;98138.16;;;11.68;100.00
10474;BME280;5284;50.446;7.904;2023-04-29T02:03:52;98135.63;;;11.67;100.00
10474;BME280;5284;50.446;7.904;2023-04-29T02:08:55;98143.25;;;11.62;100.00
10474;BME280;5284;50.446;7.904;2023-04-29T02:13:59;98148.88;;;11.59;100.00
10474;BME280;5284;50.446;7.904;2023-04-29T02:19:02;98143.22;;;11.52;100.00
10474;BME280;5284;50.446;7.904;2023-04-29T02:24:05;98150.03;;;11.47;100.00
10474;BME280;5284;50.446;7.904;2023-04-29T02:29:10;98155.50;;;11.45;100.00
10474;BME280;5284;50.446;7.904;2023-04-29T02:34:13;98162.69;;;11.35;100.00
10474;BME280;5284;50.446;7.904;2023-04-29T02:39:16;98166.94;;;11.28;100.00
10474;BME280;5284;50.446;7.904;2023-04-29T02:44:20;98171.44;;;11.18;100.00
10474;BME280;5284;50.446;7.904;2023-04-29T02:49:23;98174.25;;;11.07;100.00
10474;BME280;5284;50.446;7.904;2023-04-29T02:54:26;98175.25;;;11.06;100.00
10474;BME280;5284;50.446;7.904;2023-04-29T02:59:30;98178.63;;;10.99;100.00
10474;BME280;5284;50.446;7.904;2023-04-29T03:04:33;98181.56;;;10.96;100.00
10474;BME280;5284;50.446;7.904;2023-04-29T03:09:35;98184.81;;;10.90;100.00
10474;BME280;5284;50.446;7.904;2023-04-29T03:14:40;98184.25;;;10.86;100.00
10474;BME280;5284;50.446;7.904;2023-04-29T03:19:43;98185.50;;;10.82;100.00
10474;BME280;5284;50.446;7.904;2023-04-29T03:24:46;98187.06;;;10.75;100.00
10474;BME280;5284;50.446;7.904;2023-04-29T03:29:51;98197.31;;;10.70;100.00
10474;BME280;5284;50.446;7.904;2023-04-29T03:34:55;98195.91;;;10.66;100.00
10474;BME280;5284;50.446;7.904;2023-04-29T03:40:07;98191.56;;;10.65;100.00
10474;BME280;5284;50.446;7.904;2023-04-29T03:45:13;98206.16;;;10.62;100.00
10474;BME280;5284;50.446;7.904;2023-04-29T03:50:16;98198.84;;;10.54;100.00
10474;BME280;5284;50.446;7.904;2023-04-29T03:55:20;98193.09;;;10.49;100.00
10474;BME280;5284;50.446;7.904;2023-04-29T04:00:24;98201.34;;;10.46;100.00
10474;BME280;5284;50.446;7.904;2023-04-29T04:05:29;98205.81;;;10.46;100.00
10474;BME280;5284;50.446;7.904;2023-04-29T04:10:38;98204.84;;;10.47;100.00
10474;BME280;5284;50.446;7.904;2023-04-29T04:15:54;98215.78;;;10.44;100.00
10474;BME280;5284;50.446;7.904;2023-04-29T04:20:57;98209.75;;;10.42;100.00
10474;BME280;5284;50.446;7.904;2023-04-29T04:26:00;98222.78;;;10.35;100.00
10474;BME280;5284;50.446;7.904;2023-04-29T04:31:24;98227.56;;;10.32;100.00
10474;BME280;5284;50.446;7.904;2023-04-29T04:36:27;98225.59;;;10.34;100.00
10474;BME280;5284;50.446;7.904;2023-04-29T04:41:30;98240.19;;;10.30;100.00
10474;BME280;5284;50.446;7.904;2023-04-29T04:46:35;98241.16;;;10.29;100.00
10474;BME280;5284;50.446;7.904;2023-04-29T04:51:57;98252.38;;;10.23;100.00
10474;BME280;5284;50.446;7.904;2023-04-29T04:57:00;98254.06;;;10.24;100.00
10474;BME280;5284;50.446;7.904;2023-04-29T05:02:07;98261.19;;;10.23;100.00
10474;BME280;5284;50.446;7.904;2023-04-29T05:07:10;98263.16;;;10.21;100.00
10474;BME280;5284;50.446;7.904;2023-04-29T05:12:36;98276.03;;;10.16;100.00
10474;BME280;5284;50.446;7.904;2023-04-29T05:17:41;98278.69;;;10.16;100.00
10474;BME280;5284;50.446;7.904;2023-04-29T05:22:44;98286.97;;;10.13;100.00
10474;BME280;5284;50.446;7.904;2023-04-29T05:27:47;98290.16;;;10.07;100.00
10474;BME280;5284;50.446;7.904;2023-04-29T05:32:54;98297.56;;;10.04;100.00
10474;BME280;5284;50.446;7.904;2023-04-29T05:37:57;98306.53;;;10.03;100.00
10474;BME280;5284;50.446;7.904;2023-04-29T05:43:06;98298.44;;;10.04;100.00
10474;BME280;5284;50.446;7.904;2023-04-29T05:48:12;98310.94;;;10.13;100.00
10474;BME280;5284;50.446;7.904;2023-04-29T05:53:15;98308.84;;;10.17;100.00
10474;BME280;5284;50.446;7.904;2023-04-29T05:58:18;98319.81;;;10.23;100.00
10474;BME280;5284;50.446;7.904;2023-04-29T06:03:22;98324.16;;;10.24;100.00
10474;BME280;5284;50.446;7.904;2023-04-29T06:08:39;98334.28;;;10.21;100.00
10474;BME280;5284;50.446;7.904;2023-04-29T06:13:50;98336.34;;;10.17;100.00
10474;BME280;5284;50.446;7.904;2023-04-29T06:18:55;98341.13;;;10.23;100.00
10474;BME280;5284;50.446;7.904;2023-04-29T06:23:57;98341.13;;;10.23;100.00
10474;BME280;5284;50.446;7.904;2023-04-29T06:29:00;98353.47;;;10.24;100.00
10474;BME280;5284;50.446;7.904;2023-04-29T06:34:05;98350.00;;;10.24;100.00
10474;BME280;5284;50.446;7.904;2023-04-29T06:39:13;98370.44;;;10.23;100.00
10474;BME280;5284;50.446;7.904;2023-04-29T06:44:25;98366.47;;;10.18;100.00
10474;BME280;5284;50.446;7.904;2023-04-29T06:49:49;98384.69;;;10.13;100.00
10474;BME280;5284;50.446;7.904;2023-04-29T06:54:55;98397.75;;;10.16;100.00
10474;BME280;5284;50.446;7.904;2023-04-29T06:59:58;98392.41;;;10.16;100.00
10474;BME280;5284;50.446;7.904;2023-04-29T07:05:03;98406.94;;;10.23;100.00
10474;BME280;5284;50.446;7.904;2023-04-29T07:10:06;98409.78;;;10.31;100.00
10474;BME280;5284;50.446;7.904;2023-04-29T07:15:10;98413.44;;;10.60;100.00
10474;BME280;5284;50.446;7.904;2023-04-29T07:20:16;98419.59;;;10.60;100.00
10474;BME280;5284;50.446;7.904;2023-04-29T07:25:20;98421.38;;;10.80;100.00
10474;BME280;5284;50.446;7.904;2023-04-29T07:30:24;98438.34;;;11.09;100.00
10474;BME280;5284;50.446;7.904;2023-04-29T07:35:30;98433.00;;;11.18;100.00
10474;BME280;5284;50.446;7.904;2023-04-29T07:40:33;98438.88;;;11.12;100.00
10474;BME280;5284;50.446;7.904;2023-04-29T07:45:36;98443.00;;;11.26;100.00
10474;BME280;5284;50.446;7.904;2023-04-29T07:50:41;98447.59;;;11.14;100.00
10474;BME280;5284;50.446;7.904;2023-04-29T07:55:45;98453.47;;;11.08;100.00
10474;BME280;5284;50.446;7.904;2023-04-29T08:00:48;98461.72;;;10.96;100.00
10474;BME280;5284;50.446;7.904;2023-04-29T08:05:52;98465.38;;;10.95;100.00
10474;BME280;5284;50.446;7.904;2023-04-29T08:10:56;98475.88;;;11.26;100.00
10474;BME280;5284;50.446;7.904;2023-04-29T08:15:59;98478.09;;;11.61;100.00
10474;BME280;5284;50.446;7.904;2023-04-29T08:21:04;98491.91;;;11.75;100.00
10474;BME280;5284;50.446;7.904;2023-04-29T08:26:09;98490.09;;;11.76;100.00
10474;BME280;5284;50.446;7.904;2023-04-29T08:31:17;98494.16;;;11.89;100.00
10474;BME280;5284;50.446;7.904;2023-04-29T08:36:21;98503.31;;;11.87;100.00
10474;BME280;5284;50.446;7.904;2023-04-29T08:41:24;98504.28;;;11.76;100.00
10474;BME280;5284;50.446;7.904;2023-04-29T08:46:28;98511.03;;;11.90;100.00
10474;BME280;5284;50.446;7.904;2023-04-29T08:51:32;98516.13;;;12.02;100.00
10474;BME280;5284;50.446;7.904;2023-04-29T08:56:36;98520.84;;;11.70;100.00
10474;BME280;5284;50.446;7.904;2023-04-29T09:01:39;98522.00;;;11.87;100.00
10474;BME280;5284;50.446;7.904;2023-04-29T09:06:45;98526.94;;;11.91;100.00
10474;BME280;5284;50.446;7.904;2023-04-29T09:11:49;98527.91;;;12.00;100.00
10474;BME280;5284;50.446;7.904;2023-04-29T09:16:52;98533.28;;;12.09;100.00
10474;BME280;5284;50.446;7.904;2023-04-29T09:21:56;98540.31;;;11.91;100.00
10474;BME280;5284;50.446;7.904;2023-04-29T09:27:00;98552.88;;;11.61;100.00
10474;BME280;5284;50.446;7.904;2023-04-29T09:32:17;98561.88;;;11.30;100.00
10474;BME280;5284;50.446;7.904;2023-04-29T09:37:26;98559.63;;;11.35;100.00
10474;BME280;5284;50.446;7.904;2023-04-29T09:42:41;98575.09;;;11.31;100.00
10474;BME280;5284;50.446;7.904;2023-04-29T09:47:44;98570.63;;;11.71;100.00
10474;BME280;5284;50.446;7.904;2023-04-29T09:52:48;98563.00;;;12.25;100.00
10474;BME280;5284;50.446;7.904;2023-04-29T09:57:51;98570.13;;;12.53;100.00
10474;BME280;5284;50.446;7.904;2023-04-29T10:02:57;98579.97;;;12.81;100.00
10474;BME280;5284;50.446;7.904;2023-04-29T10:08:02;98579.84;;;12.63;100.00
10474;BME280;5284;50.446;7.904;2023-04-29T10:13:05;98592.13;;;12.47;100.00
10474;BME280;5284;50.446;7.904;2023-04-29T10:18:11;98589.84;;;12.14;100.00
10474;BME280;5284;50.446;7.904;2023-04-29T10:23:20;98587.31;;;12.03;100.00
10474;BME280;5284;50.446;7.904;2023-04-29T10:28:24;98591.22;;;11.99;100.00
10474;BME280;5284;50.446;7.904;2023-04-29T10:33:30;98591.63;;;11.95;100.00
10474;BME280;5284;50.446;7.904;2023-04-29T10:38:40;98598.25;;;11.91;100.00
10474;BME280;5284;50.446;7.904;2023-04-29T10:43:45;98599.38;;;11.98;100.00
10474;BME280;5284;50.446;7.904;2023-04-29T10:48:50;98600.94;;;12.19;100.00
10474;BME280;5284;50.446;7.904;2023-04-29T10:54:00;98606.19;;;12.30;100.00
10474;BME280;5284;50.446;7.904;2023-04-29T10:59:04;98606.31;;;12.10;100.00
10474;BME280;5284;50.446;7.904;2023-04-29T11:04:07;98602.72;;;11.90;100.00
10474;BME280;5284;50.446;7.904;2023-04-29T11:09:17;98602.38;;;12.23;100.00
10474;BME280;5284;50.446;7.904;2023-04-29T11:14:23;98604.50;;;12.48;100.00
10474;BME280;5284;50.446;7.904;2023-04-29T11:19:30;98607.34;;;12.46;100.00
10474;BME280;5284;50.446;7.904;2023-04-29T11:24:35;98609.41;;;12.33;100.00
10474;BME280;5284;50.446;7.904;2023-04-29T11:29:38;98626.00;;;12.09;100.00
10474;BME280;5284;50.446;7.904;2023-04-29T11:34:41;98620.09;;;12.05;100.00
10474;BME280;5284;50.446;7.904;2023-04-29T11:39:46;98621.38;;;12.11;100.00
10474;BME280;5284;50.446;7.904;2023-04-29T11:44:53;98630.06;;;12.03;100.00
10474;BME280;5284;50.446;7.904;2023-04-29T11:50:04;98626.88;;;12.28;100.00
10474;BME280;5284;50.446;7.904;2023-04-29T11:55:10;98626.19;;;12.83;100.00
10474;BME280;5284;50.446;7.904;2023-04-29T12:00:13;98632.38;;;13.58;100.00
10474;BME280;5284;50.446;7.904;2023-04-29T12:05:17;98632.50;;;14.46;100.00
10474;BME280;5284;50.446;7.904;2023-04-29T12:10:22;98626.66;;;14.86;99.97
10474;BME280;5284;50.446;7.904;2023-04-29T12:15:25;98630.25;;;14.77;99.06
10474;BME280;5284;50.446;7.904;2023-04-29T12:20:29;98631.06;;;15.30;93.48
10474;BME280;5284;50.446;7.904;2023-04-29T12:25:34;98622.28;;;16.20;91.56
10474;BME280;5284;50.446;7.904;2023-04-29T12:30:38;98628.41;;;15.88;90.92
10474;BME280;5284;50.446;7.904;2023-04-29T12:35:41;98640.59;;;14.89;95.39
10474;BME280;5284;50.446;7.904;2023-04-29T12:40:45;98637.63;;;14.13;99.22
10474;BME280;5284;50.446;7.904;2023-04-29T12:45:48;98638.69;;;14.02;100.00
10474;BME280;5284;50.446;7.904;2023-04-29T12:50:51;98649.66;;;14.53;99.67
10474;BME280;5284;50.446;7.904;2023-04-29T12:55:55;98641.09;;;14.85;99.70
10474;BME280;5284;50.446;7.904;2023-04-29T13:00:58;98655.28;;;14.60;96.57
10474;BME280;5284;50.446;7.904;2023-04-29T13:06:02;98649.56;;;14.28;99.61
10474;BME280;5284;50.446;7.904;2023-04-29T13:11:06;98649.88;;;14.25;100.00
10474;BME280;5284;50.446;7.904;2023-04-29T13:16:09;98659.03;;;13.95;100.00
10474;BME280;5284;50.446;7.904;2023-04-29T13:21:12;98657.84;;;13.35;100.00
10474;BME280;5284;50.446;7.904;2023-04-29T13:26:16;98669.56;;;13.24;100.00
10474;BME280;5284;50.446;7.904;2023-04-29T13:31:20;98663.63;;;13.21;100.00
10474;BME280;5284;50.446;7.904;2023-04-29T13:36:23;98663.06;;;12.89;100.00
10474;BME280;5284;50.446;7.904;2023-04-29T13:41:30;98668.16;;;12.73;100.00
10474;BME280;5284;50.446;7.904;2023-04-29T13:46:35;98674.63;;;12.89;100.00
10474;BME280;5284;50.446;7.904;2023-04-29T13:51:38;98679.69;;;13.21;100.00
10474;BME280;5284;50.446;7.904;2023-04-29T13:56:45;98673.81;;;13.17;100.00
10474;BME280;5284;50.446;7.904;2023-04-29T14:01:51;98676.63;;;12.87;100.00
10474;BME280;5284;50.446;7.904;2023-04-29T14:07:14;98678.88;;;12.82;100.00
10474;BME280;5284;50.446;7.904;2023-04-29T14:12:18;98676.19;;;12.44;100.00
10474;BME280;5284;50.446;7.904;2023-04-29T14:17:22;98682.78;;;12.59;100.00
10474;BME280;5284;50.446;7.904;2023-04-29T14:22:25;98689.84;;;12.60;100.00
10474;BME280;5284;50.446;7.904;2023-04-29T14:27:29;98689.66;;;12.33;100.00
10474;BME280;5284;50.446;7.904;2023-04-29T14:32:32;98691.78;;;12.30;100.00
10474;BME280;5284;50.446;7.904;2023-04-29T14:37:35;98702.75;;;12.27;100.00
10474;BME280;5284;50.446;7.904;2023-04-29T14:42:39;98704.38;;;12.09;100.00
10474;BME280;5284;50.446;7.904;2023-04-29T14:47:42;98708.94;;;12.37;100.00
10474;BME280;5284;50.446;7.904;2023-04-29T14:52:45;98718.56;;;12.58;100.00
10474;BME280;5284;50.446;7.904;2023-04-29T14:57:49;98723.06;;;12.67;100.00
10474;BME280;5284;50.446;7.904;2023-04-29T15:02:52;98719.44;;;12.87;100.00
10474;BME280;5284;50.446;7.904;2023-04-29T15:07:57;98719.78;;;12.94;100.00
10474;BME280;5284;50.446;7.904;2023-04-29T15:13:03;98723.53;;;12.91;100.00
10474;BME280;5284;50.446;7.904;2023-04-29T15:18:07;98722.56;;;12.92;100.00
10474;BME280;5284;50.446;7.904;2023-04-29T15:23:10;98726.94;;;13.03;100.00
10474;BME280;5284;50.446;7.904;2023-04-29T15:28:15;98725.50;;;13.46;100.00
10474;BME280;5284;50.446;7.904;2023-04-29T15:33:18;98726.44;;;13.55;100.00
10474;BME280;5284;50.446;7.904;2023-04-29T15:38:22;98734.47;;;13.64;100.00
10474;BME280;5284;50.446;7.904;2023-04-29T15:43:27;98732.41;;;13.49;100.00
10474;BME280;5284;50.446;7.904;2023-04-29T15:48:30;98746.41;;;13.14;100.00
10474;BME280;5284;50.446;7.904;2023-04-29T15:53:34;98740.88;;;13.16;100.00
10474;BME280;5284;50.446;7.904;2023-04-29T15:58:38;98747.22;;;13.15;100.00
10474;BME280;5284;50.446;7.904;2023-04-29T16:03:41;98742.13;;;12.93;100.00
10474;BME280;5284;50.446;7.904;2023-04-29T16:08:44;98750.91;;;12.95;100.00
10474;BME280;5284;50.446;7.904;2023-04-29T16:13:48;98749.22;;;12.94;100.00
10474;BME280;5284;50.446;7.904;2023-04-29T16:18:53;98740.56;;;12.81;100.00
10474;BME280;5284;50.446;7.904;2023-04-29T16:23:56;98748.00;;;12.58;100.00
10474;BME280;5284;50.446;7.904;2023-04-29T16:29:00;98750.34;;;12.52;100.00
10474;BME280;5284;50.446;7.904;2023-04-29T16:34:04;98751.50;;;12.49;100.00
10474;BME280;5284;50.446;7.904;2023-04-29T16:39:07;98759.06;;;12.35;100.00
10474;BME280;5284;50.446;7.904;2023-04-29T16:44:12;98758.44;;;12.22;100.00
10474;BME280;5284;50.446;7.904;2023-04-29T16:49:18;98761.25;;;12.20;100.00
10474;BME280;5284;50.446;7.904;2023-04-29T16:54:24;98751.28;;;12.22;100.00
10474;BME280;5284;50.446;7.904;2023-04-29T16:59:29;98762.06;;;12.12;100.00
10474;BME280;5284;50.446;7.904;2023-04-29T17:04:32;98767.53;;;12.10;100.00
10474;BME280;5284;50.446;7.904;2023-04-29T17:09:35;98772.44;;;12.05;100.00
10474;BME280;5284;50.446;7.904;2023-04-29T17:14:39;98777.78;;;12.05;100.00
10474;BME280;5284;50.446;7.904;2023-04-29T17:19:42;98772.84;;;12.01;100.00
10474;BME280;5284;50.446;7.904;2023-04-29T17:24:45;98764.38;;;11.96;100.00
10474;BME280;5284;50.446;7.904;2023-04-29T17:29:51;98772.28;;;11.97;100.00
10474;BME280;5284;50.446;7.904;2023-04-29T17:34:54;98775.66;;;11.99;100.00
10474;BME280;5284;50.446;7.904;2023-04-29T17:39:57;98777.91;;;11.94;100.00
10474;BME280;5284;50.446;7.904;2023-04-29T17:45:01;98779.00;;;11.92;100.00
10474;BME280;5284;50.446;7.904;2023-04-29T17:50:05;98776.97;;;11.84;100.00
10474;BME280;5284;50.446;7.904;2023-04-29T17:55:09;98773.84;;;11.79;100.00
10474;BME280;5284;50.446;7.904;2023-04-29T18:00:15;98780.56;;;11.74;100.00
10474;BME280;5284;50.446;7.904;2023-04-29T18:05:19;98783.75;;;11.68;100.00
10474;BME280;5284;50.446;7.904;2023-04-29T18:10:22;98797.13;;;11.68;100.00
10474;BME280;5284;50.446;7.904;2023-04-29T18:15:27;98802.44;;;11.58;100.00
10474;BME280;5284;50.446;7.904;2023-04-29T18:20:31;98802.28;;;11.60;100.00
10474;BME280;5284;50.446;7.904;2023-04-29T18:25:35;98793.06;;;11.53;100.00
10474;BME280;5284;50.446;7.904;2023-04-29T18:30:41;98811.75;;;11.53;100.00
10474;BME280;5284;50.446;7.904;2023-04-29T18:35:45;98811.56;;;11.45;100.00
10474;BME280;5284;50.446;7.904;2023-04-29T18:40:47;98802.97;;;11.41;100.00
10474;BME280;5284;50.446;7.904;2023-04-29T18:45:51;98793.88;;;11.33;100.00
10474;BME280;5284;50.446;7.904;2023-04-29T18:50:55;98792.34;;;11.30;100.00
10474;BME280;5284;50.446;7.904;2023-04-29T18:55:59;98796.34;;;11.25;100.00
10474;BME280;5284;50.446;7.904;2023-04-29T19:01:04;98806.31;;;11.23;100.00
10474;BME280;5284;50.446;7.904;2023-04-29T19:06:07;98803.66;;;11.23;100.00
10474;BME280;5284;50.446;7.904;2023-04-29T19:11:10;98805.47;;;11.22;100.00
10474;BME280;5284;50.446;7.904;2023-04-29T19:16:15;98810.34;;;11.17;100.00
10474;BME280;5284;50.446;7.904;2023-04-29T19:21:18;98829.88;;;11.18;100.00
10474;BME280;5284;50.446;7.904;2023-04-29T19:26:22;98838.97;;;11.15;100.00
10474;BME280;5284;50.446;7.904;2023-04-29T19:31:27;98834.63;;;11.14;100.00
10474;BME280;5284;50.446;7.904;2023-04-29T19:36:30;98848.69;;;11.16;100.00
10474;BME280;5284;50.446;7.904;2023-04-29T19:41:33;98844.22;;;11.17;100.00
10474;BME280;5284;50.446;7.904;2023-04-29T19:46:38;98842.63;;;11.14;100.00
10474;BME280;5284;50.446;7.904;2023-04-29T19:51:41;98849.91;;;11.12;100.00
10474;BME280;5284;50.446;7.904;2023-04-29T19:56:44;98857.19;;;11.10;100.00
10474;BME280;5284;50.446;7.904;2023-04-29T20:01:48;98850.94;;;11.00;100.00
10474;BME280;5284;50.446;7.904;2023-04-29T20:06:52;98852.72;;;11.00;100.00
10474;BME280;5284;50.446;7.904;2023-04-29T20:11:55;98856.63;;;10.96;100.00
10474;BME280;5284;50.446;7.904;2023-04-29T20:16:59;98861.38;;;10.92;100.00
10474;BME280;5284;50.446;7.904;2023-04-29T20:22:02;98857.03;;;10.91;100.00
10474;BME280;5284;50.446;7.904;2023-04-29T20:27:05;98858.38;;;10.86;100.00
10474;BME280;5284;50.446;7.904;2023-04-29T20:32:10;98858.63;;;10.83;100.00
10474;BME280;5284;50.446;7.904;2023-04-29T20:37:14;98864.31;;;10.78;100.00
10474;BME280;5284;50.446;7.904;2023-04-29T20:42:18;98868.66;;;10.79;100.00
10474;BME280;5284;50.446;7.904;2023-04-29T20:47:22;98866.97;;;10.78;100.00
10474;BME280;5284;50.446;7.904;2023-04-29T20:52:25;98872.56;;;10.75;100.00
10474;BME280;5284;50.446;7.904;2023-04-29T20:57:30;98876.44;;;10.71;100.00
10474;BME280;5284;50.446;7.904;2023-04-29T21:02:34;98879.84;;;10.73;100.00
10474;BME280;5284;50.446;7.904;2023-04-29T21:07:39;98877.19;;;10.73;100.00
10474;BME280;5284;50.446;7.904;2023-04-29T21:12:42;98883.72;;;10.69;100.00
10474;BME280;5284;50.446;7.904;2023-04-29T21:17:46;98873.56;;;10.63;100.00
10474;BME280;5284;50.446;7.904;2023-04-29T21:22:49;98873.31;;;10.56;100.00
10474;BME280;5284;50.446;7.904;2023-04-29T21:27:52;98880.09;;;10.38;100.00
10474;BME280;5284;50.446;7.904;2023-04-29T21:32:58;98889.06;;;10.37;100.00
10474;BME280;5284;50.446;7.904;2023-04-29T21:38:01;98885.91;;;10.32;100.00
10474;BME280;5284;50.446;7.904;2023-04-29T21:43:03;98894.66;;;10.34;100.00
10474;BME280;5284;50.446;7.904;2023-04-29T21:48:12;98890.72;;;10.16;100.00
10474;BME280;5284;50.446;7.904;2023-04-29T21:53:16;98899.94;;;10.12;100.00
10474;BME280;5284;50.446;7.904;2023-04-29T21:58:20;98900.06;;;10.10;100.00
10474;BME280;5284;50.446;7.904;2023-04-29T22:03:24;98902.75;;;10.10;100.00
10474;BME280;5284;50.446;7.904;2023-04-29T22:08:27;98898.47;;;10.08;100.00
10474;BME280;5284;50.446;7.904;2023-04-29T22:13:29;98901.63;;;10.02;100.00
10474;BME280;5284;50.446;7.904;2023-04-29T22:18:34;98907.16;;;9.99;100.00
10474;BME280;5284;50.446;7.904;2023-04-29T22:23:37;98903.50;;;9.89;100.00
10474;BME280;5284;50.446;7.904;2023-04-29T22:28:39;98907.72;;;9.80;100.00
10474;BME280;5284;50.446;7.904;2023-04-29T22:33:43;98920.31;;;9.78;100.00
10474;BME280;5284;50.446;7.904;2023-04-29T22:38:46;98916.69;;;9.79;100.00
10474;BME280;5284;50.446;7.904;2023-04-29T22:43:49;98925.41;;;9.81;100.00
10474;BME280;5284;50.446;7.904;2023-04-29T22:48:58;98924.78;;;9.78;100.00
10474;BME280;5284;50.446;7.904;2023-04-29T22:54:01;98925.72;;;9.77;100.00
10474;BME280;5284;50.446;7.904;2023-04-29T22:59:04;98929.59;;;9.73;100.00
10474;BME280;5284;50.446;7.904;2023-04-29T23:04:08;98922.72;;;9.70;100.00
10474;BME280;5284;50.446;7.904;2023-04-29T23:09:12;98920.97;;;9.69;100.00
10474;BME280;5284;50.446;7.904;2023-04-29T23:14:14;98928.88;;;9.71;100.00
10474;BME280;5284;50.446;7.904;2023-04-29T23:19:19;98931.75;;;9.68;100.00
10474;BME280;5284;50.446;7.904;2023-04-29T23:24:21;98932.97;;;9.64;100.00
10474;BME280;5284;50.446;7.904;2023-04-29T23:29:24;98932.31;;;9.60;100.00
10474;BME280;5284;50.446;7.904;2023-04-29T23:34:28;98940.44;;;9.59;100.00
10474;BME280;5284;50.446;7.904;2023-04-29T23:39:31;98932.56;;;9.57;100.00
10474;BME280;5284;50.446;7.904;2023-04-29T23:44:34;98937.06;;;9.57;100.00
10474;BME280;5284;50.446;7.904;2023-04-29T23:49:39;98936.31;;;9.55;100.00
10474;BME280;5284;50.446;7.904;2023-04-29T23:54:42;98945.13;;;9.55;100.00
10474;BME280;5284;50.446;7.904;2023-04-29T23:59:44;98940.91;;;9.53;100.00
